Time;durP1;ratioP1;P1;durP2;ratioP2;P2;SDS_P1;SDS_P2;PMS_P1;PMS_P2;Temp;Humidity;BMP_temperature;BMP_pressure;BME280_temperature;BME280_humidity;BME280_pressure;Samples;Min_cycle;Max_cycle;Signal;HPM_P1;HPM_P2
2023/01/21 00:01:48;;;;;;;8.63;8.43;;;-2.00;99.90;;;;;;6234167;23;20238;-83
2023/01/21 00:04:16;;;;;;;8.60;8.40;;;-2.00;99.90;;;;;;6234440;23;20189;-83
2023/01/21 00:06:44;;;;;;;8.50;8.30;;;-2.00;99.90;;;;;;6232726;23;20224;-84
2023/01/21 00:09:13;;;;;;;8.40;8.20;;;-1.90;99.90;;;;;;6234149;23;20205;-84
2023/01/21 00:11:41;;;;;;;8.60;8.40;;;-1.90;99.90;;;;;;6234771;23;20203;-83
2023/01/21 00:14:09;;;;;;;8.60;8.40;;;-1.80;99.90;;;;;;6234659;23;20345;-85
2023/01/21 00:16:37;;;;;;;8.53;8.33;;;-1.90;99.90;;;;;;6230977;23;20225;-85
2023/01/21 00:19:08;;;;;;;8.70;8.50;;;-2.00;99.90;;;;;;6232100;23;20209;-82
2023/01/21 00:21:36;;;;;;;8.60;8.40;;;-2.00;99.90;;;;;;6231491;23;20191;-83
2023/01/21 00:24:06;;;;;;;8.73;8.53;;;-2.00;99.90;;;;;;6231410;23;20202;-83
2023/01/21 00:26:35;;;;;;;8.67;8.47;;;-2.10;99.90;;;;;;6230700;23;20236;-83
2023/01/21 00:29:08;;;;;;;8.70;8.50;;;-2.10;99.90;;;;;;6230589;23;20193;-83
2023/01/21 00:31:36;;;;;;;8.60;8.40;;;-2.10;99.90;;;;;;6230833;23;20194;-83
2023/01/21 00:34:03;;;;;;;8.60;8.40;;;-2.10;99.90;;;;;;6230942;23;20195;-83
2023/01/21 00:36:31;;;;;;;8.60;8.40;;;-2.20;99.90;;;;;;6231155;23;20210;-83
2023/01/21 00:39:04;;;;;;;9.00;8.70;;;-2.20;99.90;;;;;;6232678;23;20189;-83
2023/01/21 00:41:32;;;;;;;8.60;8.40;;;-2.20;99.90;;;;;;6233727;23;20212;-83
2023/01/21 00:44:07;;;;;;;8.60;8.40;;;-2.20;99.90;;;;;;6231423;23;20199;-83
2023/01/21 00:46:39;;;;;;;8.50;8.30;;;-2.20;99.90;;;;;;6231259;23;20194;-83
2023/01/21 00:49:09;;;;;;;8.90;8.60;;;-2.20;99.90;;;;;;6231317;23;20204;-83
2023/01/21 00:51:38;;;;;;;8.40;8.20;;;-2.20;99.90;;;;;;6231521;23;20259;-84
2023/01/21 00:54:07;;;;;;;8.53;8.33;;;-2.20;99.90;;;;;;6231353;23;20204;-84
2023/01/21 00:56:38;;;;;;;8.70;8.50;;;-2.20;99.90;;;;;;6230374;23;20229;-83
2023/01/21 00:59:08;;;;;;;8.57;8.37;;;-2.10;99.90;;;;;;6228618;23;20195;-83
2023/01/21 01:01:37;;;;;;;8.60;8.40;;;-2.10;99.90;;;;;;6227124;23;20222;-83
2023/01/21 01:04:06;;;;;;;8.60;8.40;;;-2.10;99.90;;;;;;6230000;23;20191;-83
2023/01/21 01:06:35;;;;;;;8.20;8.00;;;-2.20;99.90;;;;;;6229423;23;20254;-83
2023/01/21 01:09:06;;;;;;;8.60;8.40;;;-2.20;99.90;;;;;;6229637;23;20212;-83
2023/01/21 01:11:34;;;;;;;8.43;8.23;;;-2.20;99.90;;;;;;6230940;23;20197;-83
2023/01/21 01:14:04;;;;;;;8.70;8.50;;;-2.30;99.90;;;;;;6231887;23;20213;-84
2023/01/21 01:16:34;;;;;;;8.50;8.30;;;-2.30;99.90;;;;;;6231544;23;20215;-83
2023/01/21 01:19:03;;;;;;;8.40;8.20;;;-2.30;99.90;;;;;;6228713;23;20209;-83
2023/01/21 01:21:33;;;;;;;8.40;8.20;;;-2.30;99.90;;;;;;6228197;23;20195;-84
2023/01/21 01:24:02;;;;;;;8.50;8.30;;;-2.30;99.90;;;;;;6228733;23;20202;-84
2023/01/21 01:26:31;;;;;;;8.50;8.30;;;-2.30;99.90;;;;;;6229925;23;20239;-83
2023/01/21 01:29:01;;;;;;;8.50;8.30;;;-2.30;99.90;;;;;;6228387;23;20196;-83
2023/01/21 01:31:30;;;;;;;8.50;8.30;;;-2.20;99.90;;;;;;6228114;23;20196;-83
2023/01/21 01:34:01;;;;;;;8.47;8.27;;;-2.20;99.90;;;;;;6228137;23;20262;-83
2023/01/21 01:36:31;;;;;;;8.50;8.30;;;-2.20;99.90;;;;;;6228427;23;20201;-83
2023/01/21 01:39:00;;;;;;;8.33;8.13;;;-2.10;99.90;;;;;;6228678;23;20192;-83
2023/01/21 01:41:30;;;;;;;8.37;8.17;;;-2.10;99.90;;;;;;6228497;23;20207;-84
2023/01/21 01:44:00;;;;;;;8.40;8.20;;;-2.20;99.90;;;;;;6227598;23;20238;-83
2023/01/21 01:46:47;;;;;;;8.30;8.10;;;-2.20;99.90;;;;;;6227911;23;20293;-83
2023/01/21 01:49:25;;;;;;;8.30;8.10;;;-2.20;99.90;;;;;;6227720;23;20203;-83
2023/01/21 01:51:58;;;;;;;8.50;8.30;;;-2.20;99.90;;;;;;6228431;23;20260;-84
2023/01/21 01:54:31;;;;;;;8.30;8.10;;;-2.20;99.90;;;;;;6229230;23;20196;-83
2023/01/21 01:57:03;;;;;;;8.70;8.50;;;-2.20;99.90;;;;;;6228538;23;20270;-84
2023/01/21 01:59:32;;;;;;;8.57;8.37;;;-2.20;99.90;;;;;;6228758;23;20238;-83
2023/01/21 02:02:09;;;;;;;8.60;8.40;;;-2.20;99.90;;;;;;6234682;23;20227;-83
2023/01/21 02:04:47;;;;;;;8.50;8.30;;;-2.20;99.90;;;;;;6232773;23;20214;-83
2023/01/21 02:07:16;;;;;;;9.00;8.70;;;-2.20;99.90;;;;;;6232469;23;20211;-83
2023/01/21 02:09:45;;;;;;;9.00;8.70;;;-2.20;99.90;;;;;;6230474;23;20211;-83
2023/01/21 02:12:15;;;;;;;8.37;8.17;;;-2.20;99.90;;;;;;6227705;23;20232;-83
2023/01/21 02:14:44;;;;;;;9.00;8.70;;;-2.20;99.90;;;;;;6227342;23;20232;-83
2023/01/21 02:17:45;;;;;;;8.57;8.37;;;-2.20;99.90;;;;;;6228946;23;20228;-83
2023/01/21 02:21:03;;;;;;;8.60;8.40;;;-2.20;99.90;;;;;;6228177;23;20258;-84
2023/01/21 02:23:51;;;;;;;8.90;8.60;;;-2.20;99.90;;;;;;6230098;23;20209;-82
2023/01/21 02:27:21;;;;;;;8.70;8.50;;;-2.30;99.90;;;;;;6229371;23;20273;-84
2023/01/21 02:30:43;;;;;;;8.70;8.50;;;-2.30;99.90;;;;;;6222486;23;20202;-84
2023/01/21 02:33:40;;;;;;;8.70;8.50;;;-2.30;99.90;;;;;;6227490;23;20240;-84
2023/01/21 02:36:36;;;;;;;8.70;8.50;;;-2.20;99.90;;;;;;6227603;23;20201;-84
2023/01/21 02:39:13;;;;;;;8.77;8.57;;;-2.20;99.90;;;;;;6228103;23;20194;-84
2023/01/21 02:41:58;;;;;;;8.80;8.60;;;-2.10;99.90;;;;;;6227558;23;20209;-83
2023/01/21 02:44:38;;;;;;;8.97;8.67;;;-2.10;99.90;;;;;;6227638;23;20201;-83
2023/01/21 02:47:26;;;;;;;8.93;8.67;;;-2.10;99.90;;;;;;6227413;23;20272;-83
2023/01/21 02:50:03;;;;;;;9.20;8.90;;;-2.10;99.90;;;;;;6228318;23;20189;-83
2023/01/21 02:52:32;;;;;;;8.97;8.70;;;-2.00;99.90;;;;;;6227832;23;20207;-84
2023/01/21 02:55:02;;;;;;;8.80;8.60;;;-2.00;99.90;;;;;;6228760;23;20194;-84
2023/01/21 02:57:49;;;;;;;9.10;8.80;;;-2.00;99.90;;;;;;6235852;23;20204;-83
2023/01/21 03:00:22;;;;;;;8.97;8.70;;;-2.00;99.90;;;;;;6228610;23;20221;-83
2023/01/21 03:03:23;;;;;;;8.60;8.40;;;-2.00;99.90;;;;;;6227768;23;20294;-83
2023/01/21 03:06:39;;;;;;;8.80;8.60;;;-2.00;99.90;;;;;;6224209;23;20302;-84
2023/01/21 03:09:23;;;;;;;9.10;8.80;;;-2.00;99.90;;;;;;6228418;23;20248;-84
2023/01/21 03:12:11;;;;;;;9.13;8.83;;;-2.00;99.90;;;;;;6239263;22;20201;-83
2023/01/21 03:17:45;;;;;;;9.10;8.80;;;-2.00;99.90;;;;;;6172359;23;20193;-85
2023/01/21 03:20:22;;;;;;;8.80;8.60;;;-2.00;99.90;;;;;;6229227;23;20296;-85
2023/01/21 03:23:01;;;;;;;9.20;8.90;;;-2.00;99.90;;;;;;6226734;23;20231;-85
2023/01/21 03:25:36;;;;;;;9.20;8.90;;;-2.00;99.90;;;;;;6226749;23;20196;-84
2023/01/21 03:28:09;;;;;;;9.10;8.80;;;-2.10;99.90;;;;;;6231737;23;20989;-84
2023/01/21 03:30:41;;;;;;;9.10;8.80;;;-2.00;99.90;;;;;;6227248;23;20193;-83
2023/01/21 03:33:11;;;;;;;9.27;8.97;;;-2.00;99.90;;;;;;6227406;23;20209;-84
2023/01/21 03:35:44;;;;;;;9.30;9.00;;;-2.00;99.90;;;;;;6227507;23;20224;-84
2023/01/21 03:38:28;;;;;;;8.90;8.60;;;-2.00;99.90;;;;;;6227899;23;20281;-84
2023/01/21 03:41:02;;;;;;;8.87;8.60;;;-2.00;99.90;;;;;;6228088;23;20190;-84
2023/01/21 03:43:33;;;;;;;8.80;8.60;;;-1.90;99.90;;;;;;6231046;23;20686;-84
2023/01/21 03:46:12;;;;;;;8.83;8.60;;;-2.00;99.90;;;;;;6229930;23;20219;-84
2023/01/21 03:48:48;;;;;;;9.30;9.00;;;-2.00;99.90;;;;;;6228619;23;20227;-84
2023/01/21 03:51:21;;;;;;;9.13;8.83;;;-2.00;99.90;;;;;;6228203;23;20189;-84
2023/01/21 03:53:58;;;;;;;8.83;8.60;;;-2.00;99.90;;;;;;6227941;23;20276;-84
2023/01/21 03:56:29;;;;;;;9.10;8.80;;;-2.00;99.90;;;;;;6227544;23;20226;-84
2023/01/21 03:58:56;;;;;;;9.20;8.90;;;-2.00;99.90;;;;;;6227200;23;20278;-85
2023/01/21 04:01:26;;;;;;;8.97;8.67;;;-2.00;99.90;;;;;;6227038;23;20229;-84
2023/01/21 04:03:55;;;;;;;9.00;8.70;;;-1.90;99.90;;;;;;6226588;23;20276;-84
2023/01/21 04:06:24;;;;;;;8.83;8.60;;;-1.90;99.90;;;;;;6226716;23;20199;-85
2023/01/21 04:08:54;;;;;;;9.27;8.97;;;-1.90;99.90;;;;;;6227174;23;20267;-84
2023/01/21 04:11:24;;;;;;;9.20;8.90;;;-1.90;99.90;;;;;;6229250;23;20197;-84
2023/01/21 04:13:53;;;;;;;9.20;8.90;;;-1.80;99.90;;;;;;6228652;23;20328;-84
2023/01/21 04:16:22;;;;;;;9.30;9.00;;;-1.80;99.90;;;;;;6227563;23;20292;-83
2023/01/21 04:18:52;;;;;;;9.07;8.77;;;-1.90;99.90;;;;;;6228044;23;20209;-84
2023/01/21 04:21:22;;;;;;;9.00;8.70;;;-1.90;99.90;;;;;;6234701;23;20187;-83
2023/01/21 04:23:51;;;;;;;9.30;9.00;;;-1.90;99.90;;;;;;6230692;23;20191;-84
2023/01/21 04:26:22;;;;;;;9.40;9.10;;;-1.90;99.90;;;;;;6226836;23;20292;-84
2023/01/21 04:28:50;;;;;;;9.30;9.00;;;-1.90;99.90;;;;;;6226811;23;20204;-84
2023/01/21 04:31:19;;;;;;;9.27;8.97;;;-1.90;99.90;;;;;;6227444;23;20281;-83
2023/01/21 04:33:47;;;;;;;9.10;8.80;;;-1.90;99.90;;;;;;6226885;23;20192;-84
2023/01/21 04:36:19;;;;;;;9.07;8.77;;;-1.90;99.90;;;;;;6226926;23;20190;-83
2023/01/21 04:38:47;;;;;;;9.00;8.70;;;-2.00;99.90;;;;;;6226720;23;20196;-83
2023/01/21 04:41:17;;;;;;;9.10;8.80;;;-2.00;99.90;;;;;;6227610;23;20286;-83
2023/01/21 04:43:54;;;;;;;8.70;8.50;;;-2.00;99.90;;;;;;6226915;23;20214;-82
2023/01/21 04:46:25;;;;;;;8.97;8.67;;;-2.00;99.90;;;;;;6227746;23;20198;-85
2023/01/21 04:48:54;;;;;;;9.03;8.73;;;-2.00;99.90;;;;;;6227872;23;20221;-85
2023/01/21 04:51:24;;;;;;;9.27;8.97;;;-2.10;99.90;;;;;;6227804;23;20193;-83
2023/01/21 04:53:53;;;;;;;9.20;8.90;;;-2.00;99.90;;;;;;6227674;23;20202;-85
2023/01/21 04:56:22;;;;;;;8.80;8.57;;;-2.10;99.90;;;;;;6227436;23;20209;-84
2023/01/21 04:58:56;;;;;;;9.10;8.80;;;-2.00;99.90;;;;;;6228037;23;20196;-84
2023/01/21 05:01:23;;;;;;;9.00;8.70;;;-2.00;99.90;;;;;;6228041;23;20226;-85
2023/01/21 05:03:51;;;;;;;9.00;8.70;;;-1.90;99.90;;;;;;6227348;23;20213;-84
2023/01/21 05:06:20;;;;;;;8.93;8.63;;;-2.00;99.90;;;;;;6227686;23;20257;-85
2023/01/21 05:08:49;;;;;;;9.00;8.70;;;-2.00;99.90;;;;;;6227958;23;20211;-84
2023/01/21 05:11:19;;;;;;;8.80;8.60;;;-2.00;99.90;;;;;;6227760;23;20208;-84
2023/01/21 05:13:49;;;;;;;9.10;8.80;;;-2.00;99.90;;;;;;6227972;23;20269;-84
2023/01/21 05:16:19;;;;;;;9.00;8.70;;;-2.00;99.90;;;;;;6229074;23;20259;-85
2023/01/21 05:18:47;;;;;;;9.17;8.87;;;-2.00;99.90;;;;;;6228871;23;20228;-85
2023/01/21 05:21:17;;;;;;;9.10;8.80;;;-2.00;99.90;;;;;;6228575;23;20313;-84
2023/01/21 05:23:46;;;;;;;9.00;8.70;;;-2.00;99.90;;;;;;6229136;23;20210;-84
2023/01/21 05:26:16;;;;;;;8.80;8.60;;;-1.90;99.90;;;;;;6227582;23;20215;-84
2023/01/21 05:28:44;;;;;;;9.00;8.70;;;-1.90;99.90;;;;;;6227457;23;20249;-84
2023/01/21 05:31:11;;;;;;;8.57;8.37;;;-1.80;99.90;;;;;;6227325;23;20233;-84
2023/01/21 05:33:42;;;;;;;8.63;8.43;;;-1.80;99.90;;;;;;6227862;23;20232;-84
2023/01/21 05:36:17;;;;;;;8.70;8.50;;;-1.70;99.90;;;;;;6228364;23;20201;-85
2023/01/21 05:38:45;;;;;;;9.00;8.70;;;-1.80;99.90;;;;;;6228280;23;20192;-85
2023/01/21 05:41:14;;;;;;;8.93;8.70;;;-1.80;99.90;;;;;;6231535;23;20235;-85
2023/01/21 05:43:44;;;;;;;8.60;8.40;;;-1.80;99.90;;;;;;6232748;23;20253;-84
2023/01/21 05:46:13;;;;;;;8.70;8.50;;;-1.80;99.90;;;;;;6231166;23;20194;-84
2023/01/21 05:48:52;;;;;;;8.67;8.47;;;-1.80;99.90;;;;;;6227741;23;20221;-84
2023/01/21 05:51:20;;;;;;;8.80;8.60;;;-1.80;99.90;;;;;;6227922;23;20253;-84
2023/01/21 05:53:50;;;;;;;8.90;8.63;;;-1.70;99.90;;;;;;6227807;23;20256;-84
2023/01/21 05:56:20;;;;;;;8.67;8.47;;;-1.80;99.90;;;;;;6227022;23;20275;-84
2023/01/21 05:58:49;;;;;;;8.83;8.60;;;-1.80;99.90;;;;;;6230650;23;20224;-84
2023/01/21 06:01:18;;;;;;;8.73;8.53;;;-1.80;99.90;;;;;;6230383;23;20241;-84
2023/01/21 06:03:48;;;;;;;8.80;8.60;;;-1.80;99.90;;;;;;6229317;23;20192;-85
2023/01/21 06:06:16;;;;;;;8.73;8.53;;;-1.80;99.90;;;;;;6228109;23;20196;-84
2023/01/21 06:08:47;;;;;;;9.20;8.90;;;-1.80;99.90;;;;;;6228107;23;20212;-84
2023/01/21 06:11:16;;;;;;;8.70;8.50;;;-1.80;99.90;;;;;;6229915;23;20200;-84
2023/01/21 06:13:45;;;;;;;9.10;8.80;;;-1.80;99.90;;;;;;6231311;23;20248;-84
2023/01/21 06:16:15;;;;;;;8.80;8.60;;;-1.90;99.90;;;;;;6228887;23;20933;-84
2023/01/21 06:18:42;;;;;;;8.80;8.60;;;-1.80;99.90;;;;;;6219864;23;20205;-82
2023/01/21 06:21:16;;;;;;;9.10;8.80;;;-1.80;99.90;;;;;;6199388;23;20205;-82
2023/01/21 06:23:44;;;;;;;9.23;8.93;;;-1.80;99.90;;;;;;6199916;23;20240;-83
2023/01/21 06:26:14;;;;;;;8.80;8.60;;;-1.80;99.90;;;;;;6199768;23;20210;-82
2023/01/21 06:28:43;;;;;;;8.77;8.57;;;-1.80;99.90;;;;;;6199049;23;20218;-82
2023/01/21 06:31:12;;;;;;;8.93;8.67;;;-1.80;99.90;;;;;;6199891;23;20267;-82
2023/01/21 06:33:41;;;;;;;8.77;8.57;;;-1.80;99.90;;;;;;6199671;23;20251;-83
2023/01/21 06:36:14;;;;;;;8.80;8.60;;;-1.80;99.90;;;;;;6198159;23;20235;-82
2023/01/21 06:38:42;;;;;;;8.40;8.20;;;-1.80;99.90;;;;;;6200015;23;20242;-82
2023/01/21 06:41:09;;;;;;;8.80;8.60;;;-1.80;99.90;;;;;;6200759;23;20229;-82
2023/01/21 06:43:39;;;;;;;8.50;8.30;;;-1.80;99.90;;;;;;6199911;23;20203;-83
2023/01/21 06:46:09;;;;;;;8.70;8.50;;;-1.80;99.90;;;;;;6199774;23;20261;-83
2023/01/21 06:48:38;;;;;;;8.63;8.43;;;-1.80;99.90;;;;;;6199463;23;20219;-82
2023/01/21 06:51:07;;;;;;;9.23;8.93;;;-1.70;99.90;;;;;;6200839;23;20254;-82
2023/01/21 06:53:48;;;;;;;9.20;8.90;;;-1.70;99.90;;;;;;6201196;23;20643;-82
2023/01/21 06:56:35;;;;;;;8.90;8.70;;;-1.70;99.90;;;;;;6200302;23;20242;-83
2023/01/21 06:59:03;;;;;;;8.93;8.70;;;-1.70;99.90;;;;;;6201798;23;20216;-84
2023/01/21 07:01:33;;;;;;;9.00;8.73;;;-1.70;99.90;;;;;;6203376;23;20202;-83
2023/01/21 07:04:02;;;;;;;9.50;9.20;;;-1.70;99.90;;;;;;6202387;23;20196;-83
2023/01/21 07:06:30;;;;;;;9.33;9.03;;;-1.70;99.90;;;;;;6202248;23;20212;-83
2023/01/21 07:09:11;;;;;;;9.47;9.17;;;-1.70;99.90;;;;;;6205519;23;20298;-83
2023/01/21 07:11:39;;;;;;;9.40;9.10;;;-1.70;99.90;;;;;;6216816;23;20198;-83
2023/01/21 07:14:08;;;;;;;9.40;9.10;;;-1.70;99.90;;;;;;6205441;23;20191;-84
2023/01/21 07:16:37;;;;;;;9.30;9.00;;;-1.70;99.90;;;;;;6203080;23;20206;-83
2023/01/21 07:19:06;;;;;;;9.20;8.90;;;-1.60;99.90;;;;;;6211110;23;20208;-83
2023/01/21 07:21:36;;;;;;;9.23;8.93;;;-1.60;99.90;;;;;;6232433;23;20202;-83
2023/01/21 07:24:08;;;;;;;9.37;9.07;;;-1.60;99.90;;;;;;6231759;23;20207;-83
2023/01/21 07:26:36;;;;;;;9.27;8.97;;;-1.50;99.90;;;;;;6232292;23;20275;-84
2023/01/21 07:29:07;;;;;;;8.83;8.60;;;-1.40;99.90;;;;;;6232241;23;20311;-83
2023/01/21 07:31:35;;;;;;;9.37;9.07;;;-1.40;99.90;;;;;;6233125;23;20218;-83
2023/01/21 07:34:05;;;;;;;9.27;8.97;;;-1.40;99.90;;;;;;6249657;22;20188;-84
2023/01/21 07:37:02;;;;;;;9.20;8.90;;;-1.40;99.90;;;;;;6248509;22;20193;-83
2023/01/21 07:39:33;;;;;;;9.40;9.10;;;-1.40;99.90;;;;;;6239711;22;20470;-83
2023/01/21 07:42:00;;;;;;;9.40;9.10;;;-1.40;99.90;;;;;;6232341;23;20206;-83
2023/01/21 07:44:29;;;;;;;9.53;9.23;;;-1.40;99.90;;;;;;6231692;23;20205;-83
2023/01/21 07:46:58;;;;;;;9.40;9.10;;;-1.40;99.90;;;;;;6240468;23;20214;-83
2023/01/21 07:49:29;;;;;;;9.40;9.10;;;-1.40;99.90;;;;;;6234871;23;20203;-84
2023/01/21 07:51:57;;;;;;;9.60;9.30;;;-1.40;99.90;;;;;;6233774;23;20207;-84
2023/01/21 07:54:26;;;;;;;9.30;9.00;;;-1.30;99.90;;;;;;6233991;23;20240;-84
2023/01/21 07:57:06;;;;;;;9.50;9.20;;;-1.30;99.90;;;;;;6232800;23;20202;-83
2023/01/21 07:59:34;;;;;;;9.50;9.20;;;-1.30;99.90;;;;;;6232110;23;20205;-83
2023/01/21 08:02:03;;;;;;;9.50;9.20;;;-1.30;99.90;;;;;;6230288;23;20273;-83
2023/01/21 08:04:33;;;;;;;9.60;9.30;;;-1.30;99.90;;;;;;6229946;23;20207;-84
2023/01/21 08:07:07;;;;;;;9.60;9.30;;;-1.30;99.90;;;;;;6229076;23;20237;-84
2023/01/21 08:09:42;;;;;;;9.83;9.53;;;-1.30;99.90;;;;;;6227971;23;20283;-83
2023/01/21 08:12:13;;;;;;;9.57;9.27;;;-1.30;99.90;;;;;;6228856;23;20242;-83
2023/01/21 08:14:40;;;;;;;9.70;9.40;;;-1.20;99.90;;;;;;6229879;23;20193;-83
2023/01/21 08:17:10;;;;;;;9.40;9.10;;;-1.20;99.90;;;;;;6229310;23;20209;-83
2023/01/21 08:19:38;;;;;;;9.60;9.30;;;-1.30;99.90;;;;;;6228761;23;20237;-83
2023/01/21 08:22:09;;;;;;;9.30;9.00;;;-1.30;99.90;;;;;;6230032;23;20193;-83
2023/01/21 08:24:38;;;;;;;9.37;9.07;;;-1.20;99.90;;;;;;6229673;23;20186;-83
2023/01/21 08:27:07;;;;;;;9.57;9.27;;;-1.20;99.90;;;;;;6230768;23;20228;-84
2023/01/21 08:29:47;;;;;;;9.70;9.40;;;-1.20;99.90;;;;;;6238802;23;20208;-83
2023/01/21 08:32:15;;;;;;;9.70;9.40;;;-1.20;99.90;;;;;;6242684;23;20203;-84
2023/01/21 08:34:44;;;;;;;9.67;9.37;;;-1.10;99.90;;;;;;6240511;23;20203;-83
2023/01/21 08:37:14;;;;;;;9.80;9.50;;;-1.10;99.90;;;;;;6235822;23;20213;-83
2023/01/21 08:39:43;;;;;;;9.80;9.50;;;-1.00;99.90;;;;;;6230384;23;20677;-84
2023/01/21 08:42:13;;;;;;;9.90;9.60;;;-1.00;99.90;;;;;;6237497;23;20208;-84
2023/01/21 08:44:45;;;;;;;9.70;9.40;;;-0.90;99.90;;;;;;6233411;23;20195;-83
2023/01/21 08:47:13;;;;;;;9.90;9.60;;;-0.90;99.90;;;;;;6246183;22;20250;-83
2023/01/21 08:49:41;;;;;;;9.70;9.40;;;-0.80;99.90;;;;;;6242974;23;20206;-83
2023/01/21 08:52:10;;;;;;;10.00;9.70;;;-0.80;99.90;;;;;;6232150;23;20274;-84
2023/01/21 08:54:40;;;;;;;9.80;9.50;;;-0.80;99.90;;;;;;6233648;23;20256;-83
2023/01/21 08:57:10;;;;;;;9.70;9.40;;;-0.80;99.90;;;;;;6232172;23;20210;-83
2023/01/21 08:59:39;;;;;;;9.70;9.40;;;-0.80;99.90;;;;;;6231523;23;20207;-83
2023/01/21 09:02:17;;;;;;;9.43;9.13;;;-0.80;99.90;;;;;;6230983;23;20212;-83
2023/01/21 09:04:49;;;;;;;10.07;9.77;;;-0.80;99.90;;;;;;6230540;23;20373;-84
2023/01/21 09:07:17;;;;;;;9.60;9.30;;;-0.70;99.90;;;;;;6232064;23;20233;-84
2023/01/21 09:09:59;;;;;;;9.43;9.13;;;-0.50;99.90;;;;;;6235809;23;20203;-87
2023/01/21 09:12:34;;;;;;;9.30;9.00;;;-0.20;99.90;;;;;;6233209;23;20201;-89
2023/01/21 09:15:12;;;;;;;9.67;9.37;;;-0.10;99.90;;;;;;6232021;23;20265;-88
2023/01/21 09:17:49;;;;;;;9.40;9.10;;;-0.10;99.90;;;;;;6247201;23;20254;-88
2023/01/21 09:23:43;;;;;;;9.20;8.90;;;-0.20;99.90;;;;;;6230885;23;20222;-87
2023/01/21 09:26:22;;;;;;;9.33;9.03;;;-0.20;99.90;;;;;;6231724;23;20191;-86
2023/01/21 09:29:01;;;;;;;9.73;9.43;;;-0.20;99.90;;;;;;6230640;23;20203;-87
2023/01/21 09:31:31;;;;;;;9.23;8.93;;;-0.20;99.90;;;;;;6230047;23;20315;-87
2023/01/21 09:34:06;;;;;;;9.30;9.00;;;-0.20;99.90;;;;;;6231971;23;20256;-87
2023/01/21 09:36:36;;;;;;;9.60;9.30;;;-0.20;99.90;;;;;;6232024;23;20256;-87
2023/01/21 09:39:07;;;;;;;9.30;9.00;;;-0.20;99.90;;;;;;6232477;23;20199;-87
2023/01/21 09:41:53;;;;;;;9.40;9.10;;;-0.20;99.90;;;;;;6233166;23;20195;-87
2023/01/21 09:48:10;;;;;;;9.20;8.90;;;-0.10;99.90;;;;;;6242015;22;20199;-87
2023/01/21 09:53:53;;;;;;;9.30;9.00;;;0.10;99.90;;;;;;6244613;23;20201;-86
2023/01/21 09:59:45;;;;;;;9.00;8.73;;;0.00;99.90;;;;;;6236019;23;20228;-86
2023/01/21 10:06:08;;;;;;;9.13;8.83;;;0.00;99.90;;;;;;6233944;23;20281;-85
2023/01/21 10:09:02;;;;;;;9.10;8.80;;;-0.10;99.90;;;;;;6232619;23;20222;-86
2023/01/21 10:11:48;;;;;;;9.37;9.07;;;0.00;99.90;;;;;;6235930;23;20195;-87
2023/01/21 10:14:52;;;;;;;9.20;8.90;;;0.00;99.90;;;;;;6235805;23;20193;-87
2023/01/21 10:17:30;;;;;;;8.87;8.67;;;-0.10;99.90;;;;;;6206468;23;20186;-86
2023/01/21 10:20:15;;;;;;;9.13;8.83;;;0.00;99.90;;;;;;6234444;23;20212;-85
2023/01/21 10:23:04;;;;;;;9.27;8.97;;;0.10;99.90;;;;;;6238158;23;20202;-86
2023/01/21 10:25:49;;;;;;;9.20;8.90;;;0.00;99.90;;;;;;6235632;23;20206;-87
2023/01/21 10:28:29;;;;;;;9.13;8.83;;;0.10;99.90;;;;;;6234204;23;20202;-88
2023/01/21 10:31:06;;;;;;;8.80;8.60;;;0.80;99.90;;;;;;6233119;23;20265;-88
2023/01/21 10:34:23;;;;;;;9.50;9.20;;;1.10;99.90;;;;;;6232960;23;20205;-89
2023/01/21 10:40:41;;;;;;;9.20;8.90;;;0.30;99.90;;;;;;6235903;23;20202;-89
2023/01/21 10:43:55;;;;;;;;;;;;;;;;;;;;;
2023/01/21 11:00:08;;;;;;;9.00;8.80;;;-0.30;99.90;;;;;;6245539;23;20206;-90
2023/01/21 12:21:45;;;;;;;9.20;8.90;;;0.20;99.90;;;;;;6195825;23;20226;-86
2023/01/21 12:24:33;;;;;;;9.30;9.00;;;0.10;99.90;;;;;;6200924;23;20329;-84
2023/01/21 12:27:13;;;;;;;9.43;9.13;;;0.20;99.90;;;;;;6198219;23;20198;-86
2023/01/21 12:29:58;;;;;;;9.30;9.00;;;0.20;99.90;;;;;;6199678;23;20218;-85
2023/01/21 12:32:29;;;;;;;9.43;9.13;;;0.30;99.90;;;;;;6201546;23;20202;-83
2023/01/21 12:35:03;;;;;;;9.50;9.20;;;0.40;99.90;;;;;;6200714;23;20188;-85
2023/01/21 12:37:50;;;;;;;9.20;8.90;;;0.40;99.90;;;;;;6198491;23;20188;-85
2023/01/21 12:40:25;;;;;;;9.30;9.00;;;0.20;99.90;;;;;;6199650;23;20191;-84
2023/01/21 12:42:59;;;;;;;9.40;9.10;;;0.20;99.90;;;;;;6200889;23;20203;-83
2023/01/21 12:45:35;;;;;;;9.50;9.20;;;0.00;99.90;;;;;;6202526;23;20188;-84
2023/01/21 12:48:15;;;;;;;9.47;9.17;;;0.10;99.90;;;;;;6199321;23;20191;-84
2023/01/21 12:50:48;;;;;;;9.70;9.40;;;0.10;99.90;;;;;;6201434;23;20207;-84
2023/01/21 12:53:26;;;;;;;9.53;9.23;;;0.10;99.90;;;;;;6201215;23;20201;-83
2023/01/21 12:56:21;;;;;;;9.70;9.40;;;0.00;99.90;;;;;;6200662;23;20214;-84
2023/01/21 12:58:56;;;;;;;9.50;9.20;;;0.00;99.90;;;;;;6200602;23;20200;-84
2023/01/21 13:01:54;;;;;;;9.90;9.60;;;-0.10;99.90;;;;;;6199638;23;20203;-86
2023/01/21 13:04:44;;;;;;;9.90;9.60;;;0.00;99.90;;;;;;6206245;23;20192;-84
2023/01/21 13:07:28;;;;;;;9.70;9.40;;;-0.10;99.90;;;;;;6212220;23;20199;-83
2023/01/21 13:10:05;;;;;;;9.57;9.27;;;-0.10;99.90;;;;;;6207190;23;20237;-85
2023/01/21 13:12:36;;;;;;;9.63;9.33;;;-0.10;99.90;;;;;;6201540;23;20324;-84
2023/01/21 13:18:00;;;;;;;9.20;8.90;;;0.00;99.90;;;;;;6202649;23;20261;-83
2023/01/21 13:20:30;;;;;;;9.30;9.00;;;0.00;99.90;;;;;;6220041;23;21182;-83
2023/01/21 13:23:15;;;;;;;9.60;9.30;;;0.00;99.90;;;;;;6239239;23;20195;-83
2023/01/21 13:25:53;;;;;;;9.50;9.20;;;-0.10;99.90;;;;;;6241717;23;20187;-83
2023/01/21 13:28:35;;;;;;;9.40;9.10;;;-0.10;99.90;;;;;;6235279;23;20195;-84
2023/01/21 13:31:16;;;;;;;9.30;9.00;;;-0.10;99.90;;;;;;6233352;23;20213;-84
2023/01/21 13:33:54;;;;;;;9.23;8.93;;;-0.10;99.90;;;;;;6231686;23;20203;-84
2023/01/21 13:36:49;;;;;;;9.30;9.00;;;-0.10;99.90;;;;;;6232559;23;20206;-84
2023/01/21 13:39:25;;;;;;;9.10;8.80;;;0.00;99.90;;;;;;6231317;23;20194;-83
2023/01/21 13:42:22;;;;;;;9.30;9.00;;;-0.10;99.90;;;;;;6230179;23;20803;-86
2023/01/21 13:45:31;;;;;;;9.40;9.10;;;-0.10;99.90;;;;;;6229646;23;20247;-86
2023/01/21 13:48:23;;;;;;;9.50;9.20;;;-0.20;99.90;;;;;;6229026;23;20233;-86
2023/01/21 13:51:18;;;;;;;9.33;9.03;;;-0.20;99.90;;;;;;6228424;23;20221;-87
2023/01/21 13:54:30;;;;;;;9.57;9.27;;;-0.20;99.90;;;;;;6228485;23;20201;-85
2023/01/21 13:57:29;;;;;;;9.73;9.43;;;-0.20;99.90;;;;;;6230723;23;20230;-85
2023/01/21 14:00:04;;;;;;;9.70;9.40;;;-0.20;99.90;;;;;;6232063;23;20213;-84
2023/01/21 14:02:44;;;;;;;9.70;9.40;;;-0.10;99.90;;;;;;6231743;23;20226;-84
2023/01/21 14:05:21;;;;;;;9.33;9.03;;;-0.10;99.90;;;;;;6230580;23;20236;-85
2023/01/21 14:07:55;;;;;;;9.40;9.10;;;-0.10;99.90;;;;;;6230942;23;20257;-84
2023/01/21 14:10:31;;;;;;;9.53;9.23;;;0.00;99.90;;;;;;6230366;23;20492;-85
2023/01/21 14:13:58;;;;;;;9.63;9.33;;;-0.10;99.90;;;;;;6232250;23;20209;-85
2023/01/21 14:17:17;;;;;;;9.70;9.40;;;-0.10;99.90;;;;;;6231762;23;20221;-85
2023/01/21 14:20:32;;;;;;;9.37;9.07;;;-0.10;99.90;;;;;;6221527;23;20214;-84
2023/01/21 14:23:34;;;;;;;9.43;9.13;;;-0.10;99.90;;;;;;6231849;23;20234;-84
2023/01/21 14:26:20;;;;;;;9.47;9.17;;;-0.20;99.90;;;;;;6231183;23;20191;-84
2023/01/21 14:29:16;;;;;;;9.57;9.27;;;-0.10;99.90;;;;;;6232133;23;20191;-84
2023/01/21 14:31:55;;;;;;;9.40;9.10;;;-0.10;99.90;;;;;;6231157;23;20215;-85
2023/01/21 14:34:32;;;;;;;9.53;9.23;;;-0.20;99.90;;;;;;6233470;23;20190;-85
2023/01/21 14:37:10;;;;;;;9.50;9.20;;;-0.20;99.90;;;;;;6233057;23;20306;-85
2023/01/21 14:39:56;;;;;;;9.20;8.90;;;-0.20;99.90;;;;;;6232861;23;20212;-85
2023/01/21 14:42:42;;;;;;;9.13;8.83;;;-0.20;99.90;;;;;;6232747;23;20191;-84
2023/01/21 14:45:21;;;;;;;9.30;9.00;;;-0.20;99.90;;;;;;6231640;23;20221;-84
2023/01/21 14:47:53;;;;;;;9.30;9.00;;;-0.30;99.90;;;;;;6232318;23;20218;-84
2023/01/21 14:51:12;;;;;;;9.17;8.87;;;-0.30;99.90;;;;;;6232343;23;20255;-84
2023/01/21 14:53:47;;;;;;;9.27;8.97;;;-0.30;99.90;;;;;;6232233;23;20225;-84
2023/01/21 14:56:27;;;;;;;9.20;8.90;;;-0.30;99.90;;;;;;6232263;23;20190;-85
2023/01/21 14:59:01;;;;;;;8.90;8.70;;;-0.30;99.90;;;;;;6235749;23;20198;-85
2023/01/21 15:01:42;;;;;;;9.20;8.90;;;-0.30;99.90;;;;;;6236425;23;20191;-84
2023/01/21 15:04:25;;;;;;;9.30;9.00;;;-0.40;99.90;;;;;;6240583;23;20206;-84
2023/01/21 15:06:58;;;;;;;9.17;8.87;;;-0.30;99.90;;;;;;6234032;23;20198;-84
2023/01/21 15:09:30;;;;;;;9.47;9.17;;;-0.40;99.90;;;;;;6233455;23;20242;-83
2023/01/21 15:12:11;;;;;;;9.30;9.00;;;-0.30;99.90;;;;;;6232245;23;20205;-84
2023/01/21 15:14:40;;;;;;;9.30;9.00;;;-0.40;99.90;;;;;;6231552;23;20645;-84
2023/01/21 15:18:19;;;;;;;9.30;9.00;;;-0.40;99.90;;;;;;6231526;23;20210;-84
2023/01/21 15:20:57;;;;;;;9.40;9.10;;;-0.40;99.90;;;;;;6198244;23;20226;-84
2023/01/21 15:23:42;;;;;;;9.30;9.00;;;-0.40;99.90;;;;;;6231707;23;20194;-84
2023/01/21 15:26:32;;;;;;;9.20;8.90;;;-0.40;99.90;;;;;;6231388;23;20251;-84
2023/01/21 15:29:36;;;;;;;9.30;9.00;;;-0.40;99.90;;;;;;6230327;23;20256;-84
2023/01/21 15:32:33;;;;;;;9.40;9.10;;;-0.40;99.90;;;;;;6230972;23;20237;-84
2023/01/21 15:35:12;;;;;;;8.80;8.60;;;-0.50;99.90;;;;;;6218165;23;20229;-84